Time;durP1;ratioP1;P1;durP2;ratioP2;P2;SDS_P1;SDS_P2;PMS_P1;PMS_P2;Temp;Humidity;BMP_temperature;BMP_pressure;BME280_temperature;BME280_humidity;BME280_pressure;Samples;Min_cycle;Max_cycle;Signal;HPM_P1;HPM_P2
2022/02/27 00:00:05;;;;;;;16.17;9.73;;;;;;;8.47;61.28;100947.77;1672098;85;21562;-63
2022/02/27 00:02:34;;;;;;;16.70;9.90;;;;;;;8.57;60.79;100940.38;1669080;84;21061;-72
2022/02/27 00:05:00;;;;;;;15.18;10.00;;;;;;;8.44;61.31;100940.27;1680445;85;21101;-66
2022/02/27 00:07:27;;;;;;;14.90;9.60;;;;;;;8.54;61.02;100942.78;1680921;85;21282;-65
2022/02/27 00:09:53;;;;;;;16.35;10.45;;;;;;;8.61;60.63;100946.89;1682139;84;21373;-63
2022/02/27 00:12:20;;;;;;;17.02;10.05;;;;;;;8.70;60.06;100949.37;1682049;85;21626;-62
2022/02/27 00:14:46;;;;;;;14.93;10.08;;;;;;;8.80;59.69;100949.27;1681969;85;21574;-67
2022/02/27 00:17:13;;;;;;;17.73;10.48;;;;;;;8.74;59.63;100961.58;1681357;84;21195;-64
2022/02/27 00:19:40;;;;;;;15.28;9.68;;;;;;;8.71;60.07;100959.27;1682026;84;21125;-62
2022/02/27 00:22:06;;;;;;;15.32;10.32;;;;;;;8.67;60.41;100960.55;1682410;84;21069;-62
2022/02/27 00:24:33;;;;;;;15.68;10.10;;;;;;;8.55;60.56;100959.19;1681910;84;21103;-62
2022/02/27 00:26:59;;;;;;;18.73;11.83;;;;;;;8.57;61.42;100959.86;1681984;85;20927;-67
2022/02/27 00:29:27;;;;;;;16.90;11.00;;;;;;;8.61;60.96;100965.08;1681050;85;21079;-63
2022/02/27 00:31:54;;;;;;;15.32;10.72;;;;;;;8.70;60.81;100957.66;1682261;85;21229;-62
2022/02/27 00:34:20;;;;;;;18.70;10.40;;;;;;;8.69;60.51;100950.34;1681934;84;21109;-61
2022/02/27 00:36:50;;;;;;;15.58;10.75;;;;;;;8.76;60.33;100946.66;1682895;84;21499;-61
2022/02/27 00:39:15;;;;;;;24.30;12.78;;;;;;;8.67;60.93;100954.86;1681168;85;21072;-62
2022/02/27 00:41:41;;;;;;;17.70;11.40;;;;;;;8.73;60.81;100952.16;1681571;85;21581;-63
2022/02/27 00:44:09;;;;;;;19.07;10.85;;;;;;;8.79;60.45;100964.55;1682730;84;21076;-61
2022/02/27 00:46:36;;;;;;;18.95;11.05;;;;;;;8.69;60.91;100958.14;1682551;85;21123;-62
2022/02/27 00:49:03;;;;;;;16.15;10.30;;;;;;;8.74;60.61;100957.67;1682565;85;20979;-66
2022/02/27 00:51:31;;;;;;;16.65;10.72;;;;;;;8.75;60.78;100963.20;1681405;84;21048;-63
2022/02/27 00:54:00;;;;;;;17.55;11.08;;;;;;;8.69;60.90;100959.93;1682494;85;21599;-66
2022/02/27 00:56:27;;;;;;;15.43;10.38;;;;;;;8.45;62.84;100951.50;1681209;85;21116;-65
2022/02/27 00:58:54;;;;;;;16.82;10.72;;;;;;;8.38;63.39;100955.19;1682081;85;21004;-67
2022/02/27 01:01:22;;;;;;;18.92;10.72;;;;;;;8.25;64.40;100956.01;1681053;85;21088;-63
2022/02/27 01:03:49;;;;;;;19.27;11.40;;;;;;;8.36;64.25;100950.58;1679390;84;20946;-63
2022/02/27 01:06:16;;;;;;;18.80;10.72;;;;;;;8.44;64.12;100943.35;1650280;85;21108;-61
2022/02/27 01:08:44;;;;;;;17.75;10.95;;;;;;;8.38;64.18;100938.30;1669384;85;21544;-62
2022/02/27 01:11:11;;;;;;;15.98;10.30;;;;;;;8.08;65.69;100945.17;1670006;85;20952;-67
2022/02/27 01:13:38;;;;;;;16.77;10.45;;;;;;;8.50;63.97;100947.47;1670004;85;21096;-69
2022/02/27 01:16:07;;;;;;;16.50;10.98;;;;;;;8.27;64.65;100960.09;1672484;85;21090;-62
2022/02/27 01:18:33;;;;;;;15.83;10.05;;;;;;;8.26;65.85;100962.86;1671474;85;21002;-61
2022/02/27 01:21:01;;;;;;;16.42;10.55;;;;;;;8.29;65.48;100959.45;1672724;85;21155;-63
2022/02/27 01:23:28;;;;;;;17.42;11.15;;;;;;;8.37;65.50;100961.35;1670353;85;21123;-69
2022/02/27 01:25:54;;;;;;;16.40;10.75;;;;;;;8.67;63.86;100960.06;1672400;85;21077;-62
2022/02/27 01:28:21;;;;;;;16.90;10.30;;;;;;;8.74;62.67;100958.97;1671785;85;20997;-61
2022/02/27 01:30:48;;;;;;;14.73;9.98;;;;;;;8.70;62.76;100962.36;1674321;83;21129;-63
2022/02/27 01:33:16;;;;;;;13.65;9.40;;;;;;;8.35;64.70;100965.03;1671719;85;21131;-71
2022/02/27 01:35:42;;;;;;;16.50;9.98;;;;;;;8.21;65.68;100961.17;1671587;85;21116;-61
2022/02/27 01:38:09;;;;;;;15.05;9.80;;;;;;;8.25;65.25;100969.00;1672444;84;21628;-61
2022/02/27 01:40:35;;;;;;;17.23;10.93;;;;;;;8.31;64.89;100968.41;1671516;85;21507;-61
2022/02/27 01:43:03;;;;;;;15.78;9.30;;;;;;;8.34;63.92;100975.91;1669542;85;21078;-61
2022/02/27 01:45:30;;;;;;;15.48;10.00;;;;;;;8.16;64.70;100973.80;1670764;85;21137;-71
2022/02/27 01:47:57;;;;;;;17.75;10.40;;;;;;;8.18;64.85;100983.55;1672510;85;21030;-63
2022/02/27 01:50:24;;;;;;;15.25;9.63;;;;;;;8.26;64.88;100979.25;1671850;85;21096;-64
2022/02/27 01:52:52;;;;;;;16.15;9.80;;;;;;;8.09;67.27;100983.15;1673363;85;21487;-61
2022/02/27 01:55:20;;;;;;;15.68;9.88;;;;;;;8.26;66.55;100974.55;1671897;85;22649;-71
2022/02/27 01:57:46;;;;;;;15.45;9.85;;;;;;;8.29;66.48;100975.52;1671761;85;21104;-61
2022/02/27 02:00:14;;;;;;;14.07;9.65;;;;;;;8.45;65.91;100977.48;1672913;85;21165;-61
2022/02/27 02:02:43;;;;;;;18.48;10.35;;;;;;;8.47;65.97;100978.94;1672343;85;21598;-62
2022/02/27 02:05:11;;;;;;;13.88;9.00;;;;;;;8.48;66.28;100990.14;1672717;85;21050;-62
2022/02/27 02:07:40;;;;;;;14.47;9.50;;;;;;;8.63;65.72;100990.42;1670857;85;20910;-63
2022/02/27 02:10:09;;;;;;;15.10;10.23;;;;;;;8.38;65.98;101001.12;1673429;85;21870;-61
2022/02/27 02:12:39;;;;;;;15.28;10.00;;;;;;;8.70;66.29;100998.75;1674377;85;21461;-61
2022/02/27 02:15:07;;;;;;;16.12;10.00;;;;;;;8.87;65.36;100996.28;1672962;85;20987;-70
2022/02/27 02:17:35;;;;;;;14.23;9.10;;;;;;;8.88;64.32;101003.91;1671099;85;21108;-62
2022/02/27 02:20:06;;;;;;;14.78;9.38;;;;;;;8.98;63.74;101005.93;1673567;85;21085;-64
2022/02/27 02:22:34;;;;;;;;;;;;;;;8.98;63.32;101005.93;1671680;85;21130;-62
2022/02/27 02:25:00;;;;;;;13.70;8.65;;;;;;;8.97;63.59;101004.77;1669111;85;20123;-69
2022/02/27 02:27:27;;;;;;;13.90;8.50;;;;;;;8.67;64.87;101006.03;1671060;85;21579;-66
2022/02/27 02:29:53;;;;;;;13.40;8.38;;;;;;;8.77;63.52;101011.48;1673433;85;21532;-61
2022/02/27 02:32:20;;;;;;;15.55;9.85;;;;;;;8.77;63.67;101005.47;1671976;85;21592;-63
2022/02/27 02:34:47;;;;;;;12.82;8.30;;;;;;;8.73;64.30;101013.23;1672866;85;21126;-63
2022/02/27 02:37:14;;;;;;;12.95;8.40;;;;;;;8.08;67.93;101005.70;1671738;85;20975;-64
2022/02/27 02:39:41;;;;;;;14.73;9.03;;;;;;;7.94;70.42;101010.92;1672261;85;21166;-64
2022/02/27 02:42:10;;;;;;;13.00;8.55;;;;;;;8.17;68.96;101001.40;1672868;85;20963;-66
2022/02/27 02:44:39;;;;;;;12.82;7.87;;;;;;;8.15;68.52;101011.94;1672237;85;21013;-65
2022/02/27 02:47:06;;;;;;;16.70;9.08;;;;;;;8.24;68.64;101014.13;1671563;85;21153;-71
2022/02/27 02:49:33;;;;;;;13.88;8.58;;;;;;;8.10;69.20;101016.75;1671589;85;21188;-65
2022/02/27 02:52:00;;;;;;;12.78;7.25;;;;;;;8.24;69.60;101020.61;1673662;85;21876;-65
2022/02/27 02:54:27;;;;;;;13.60;8.98;;;;;;;8.03;70.52;101020.44;1671743;85;21021;-63
2022/02/27 02:56:54;;;;;;;11.35;7.55;;;;;;;8.17;69.93;101027.36;1676372;85;21026;-67
2022/02/27 02:59:24;;;;;;;12.53;7.83;;;;;;;8.26;69.64;101035.58;1671451;84;21160;-64
2022/02/27 03:01:51;;;;;;;11.65;7.75;;;;;;;8.29;67.96;101030.06;1673033;85;21029;-65
2022/02/27 03:04:17;;;;;;;14.10;8.20;;;;;;;8.47;66.57;101033.50;1672323;84;21039;-64
2022/02/27 03:06:44;;;;;;;11.53;7.58;;;;;;;8.42;66.60;101037.53;1673173;85;21077;-63
2022/02/27 03:09:10;;;;;;;13.03;8.90;;;;;;;8.39;66.51;101032.14;1671546;85;21829;-66
2022/02/27 03:11:39;;;;;;;11.57;7.80;;;;;;;8.49;65.84;101036.78;1672070;85;22457;-65
2022/02/27 03:14:06;;;;;;;10.88;7.12;;;;;;;8.56;65.01;101030.97;1673385;85;21000;-66
2022/02/27 03:16:33;;;;;;;10.78;7.45;;;;;;;8.55;64.48;101034.54;1672110;85;21015;-64
2022/02/27 03:18:59;;;;;;;14.35;6.70;;;;;;;8.45;64.64;101043.25;1674152;85;21497;-64
2022/02/27 03:21:25;;;;;;;10.90;6.95;;;;;;;8.56;63.90;101037.01;1670354;85;21006;-64
2022/02/27 03:23:53;;;;;;;11.08;8.00;;;;;;;8.48;63.90;101039.52;1673163;85;21139;-64
2022/02/27 03:26:21;;;;;;;11.20;7.12;;;;;;;8.57;63.19;101045.61;1672166;85;20943;-64
2022/02/27 03:28:49;;;;;;;10.00;6.05;;;;;;;8.63;62.61;101052.79;1672908;85;21013;-65
2022/02/27 03:31:16;;;;;;;10.48;6.30;;;;;;;8.42;62.86;101061.73;1672499;85;20963;-72
2022/02/27 03:33:42;;;;;;;10.40;6.80;;;;;;;8.57;62.16;101057.31;1671473;85;21211;-62
2022/02/27 03:36:09;;;;;;;10.18;6.50;;;;;;;8.53;61.83;101057.60;1673091;85;21093;-62
2022/02/27 03:38:36;;;;;;;11.83;7.33;;;;;;;8.57;61.24;101053.41;1671770;85;21073;-67
2022/02/27 03:41:03;;;;;;;11.90;7.65;;;;;;;8.45;61.97;101052.34;1669317;85;21061;-72
2022/02/27 03:43:31;;;;;;;11.53;6.85;;;;;;;8.61;61.08;101044.34;1671538;85;21112;-73
2022/02/27 03:45:59;;;;;;;11.80;7.17;;;;;;;8.57;60.26;101046.91;1673457;85;21065;-62
2022/02/27 03:48:25;;;;;;;11.97;6.65;;;;;;;8.57;59.13;101065.11;1671111;84;22014;-63
2022/02/27 03:50:52;;;;;;;10.75;6.40;;;;;;;8.63;58.87;101066.59;1672959;85;21016;-62
2022/02/27 03:53:19;;;;;;;9.90;6.33;;;;;;;8.58;59.00;101068.03;1671991;85;20983;-64
2022/02/27 03:55:45;;;;;;;10.38;6.95;;;;;;;8.63;58.96;101069.20;1671787;85;21104;-62
2022/02/27 03:58:12;;;;;;;12.07;7.55;;;;;;;8.70;58.82;101068.12;1672646;85;20991;-62
2022/02/27 04:00:39;;;;;;;11.78;7.08;;;;;;;8.61;58.70;101069.84;1675742;81;65318;-78
2022/02/27 04:03:05;;;;;;;10.58;6.92;;;;;;;8.42;59.42;101066.11;1676550;85;21054;-78
2022/02/27 04:05:34;;;;;;;10.00;6.35;;;;;;;8.41;59.66;101067.05;1675247;85;21035;-78
2022/02/27 04:08:00;;;;;;;10.53;6.33;;;;;;;8.41;60.05;101074.84;1676189;84;21090;-78
2022/02/27 04:10:27;;;;;;;10.30;6.62;;;;;;;8.31;60.50;101080.59;1676760;85;21138;-78
2022/02/27 04:12:54;;;;;;;12.23;6.72;;;;;;;8.48;59.89;101088.88;1677088;85;21124;-78
2022/02/27 04:15:22;;;;;;;11.68;7.05;;;;;;;8.62;59.20;101094.05;1676658;83;21596;-79
2022/02/27 04:17:49;;;;;;;12.37;6.85;;;;;;;8.54;59.20;101098.69;1677154;84;21091;-78
2022/02/27 04:20:15;;;;;;;13.28;7.90;;;;;;;8.69;59.06;101105.48;1677154;84;21000;-79
2022/02/27 04:22:42;;;;;;;11.15;7.08;;;;;;;8.71;58.63;101100.48;1676683;85;21011;-78
2022/02/27 04:25:08;;;;;;;10.38;7.00;;;;;;;8.70;58.41;101103.20;1676977;85;21143;-78
2022/02/27 04:27:35;;;;;;;10.35;6.78;;;;;;;8.69;58.75;101108.89;1677240;85;21103;-80
2022/02/27 04:30:04;;;;;;;10.53;6.83;;;;;;;8.91;57.80;101102.41;1671290;85;21074;-78
2022/02/27 04:32:30;;;;;;;10.48;6.12;;;;;;;8.79;57.59;101103.62;1672103;85;21536;-79
2022/02/27 04:34:57;;;;;;;11.40;6.70;;;;;;;8.82;57.66;101106.39;1676582;85;21007;-78
2022/02/27 04:37:24;;;;;;;11.70;6.67;;;;;;;8.71;58.04;101110.03;1678006;85;21106;-79
2022/02/27 04:39:50;;;;;;;10.45;6.28;;;;;;;8.80;58.19;101115.65;1674898;85;21027;-80
2022/02/27 04:42:17;;;;;;;9.95;6.03;;;;;;;8.74;57.31;101113.64;1677595;84;21484;-78
2022/02/27 04:44:43;;;;;;;9.80;6.30;;;;;;;8.74;57.38;101116.23;1676695;85;21025;-79
2022/02/27 04:47:11;;;;;;;10.35;6.53;;;;;;;8.75;57.08;101115.27;1677745;85;21046;-79
2022/02/27 04:49:37;;;;;;;10.10;6.10;;;;;;;8.81;56.31;101116.46;1675040;85;21688;-79
2022/02/27 04:52:05;;;;;;;9.85;5.90;;;;;;;8.71;56.25;101106.13;1672467;85;20953;-76
2022/02/27 05:00:31;;;;;;;9.73;5.70;;;;;;;4.54;100.00;101121.52;1800852;77;22129;-64
2022/02/27 05:02:57;;;;;;;9.08;5.40;;;;;;;6.31;85.63;101127.88;1777476;80;20935;-71
2022/02/27 05:05:24;;;;;;;9.00;5.95;;;;;;;6.36;82.14;101127.47;1763994;80;21143;-63
2022/02/27 05:07:50;;;;;;;9.18;5.12;;;;;;;6.69;78.54;101128.38;1769895;80;20963;-63
2022/02/27 05:10:17;;;;;;;9.43;6.12;;;;;;;6.91;74.40;101122.59;1774859;80;21553;-67
2022/02/27 05:12:44;;;;;;;9.65;5.90;;;;;;;7.15;70.52;101124.73;1736710;80;21600;-63
2022/02/27 05:15:10;;;;;;;7.80;5.30;;;;;;;7.11;69.56;101121.59;1783620;80;20994;-71
2022/02/27 05:17:37;;;;;;;9.53;5.45;;;;;;;7.34;67.41;101122.09;1782814;80;21171;-64
2022/02/27 05:20:08;;;;;;;9.28;5.47;;;;;;;7.51;63.75;101130.94;1781424;80;21021;-62
2022/02/27 05:22:35;;;;;;;8.28;4.55;;;;;;;7.61;62.28;101121.80;1743239;80;20975;-65
2022/02/27 05:25:02;;;;;;;7.60;4.95;;;;;;;7.67;61.45;101118.17;1714291;80;21568;-68
2022/02/27 05:27:29;;;;;;;10.25;5.50;;;;;;;7.70;60.84;101120.97;1782848;80;20916;-63
2022/02/27 05:29:55;;;;;;;7.87;5.30;;;;;;;7.67;59.85;101123.36;1779760;80;21804;-62
2022/02/27 05:32:22;;;;;;;8.78;5.75;;;;;;;7.65;59.90;101120.56;1762729;80;20982;-63
2022/02/27 05:34:48;;;;;;;8.73;5.90;;;;;;;7.77;59.91;101121.55;1756170;80;21042;-62
2022/02/27 05:37:15;;;;;;;7.33;4.40;;;;;;;7.68;59.97;101128.06;1778484;80;20986;-69
2022/02/27 05:39:41;;;;;;;9.85;6.08;;;;;;;7.70;59.25;101116.59;1774438;80;20983;-64
2022/02/27 05:42:08;;;;;;;7.37;5.10;;;;;;;7.56;59.18;101125.65;1768068;80;22378;-62
2022/02/27 05:44:34;;;;;;;10.68;5.35;;;;;;;7.64;59.43;101121.53;1777906;80;21736;-65
2022/02/27 05:47:04;;;;;;;11.60;5.78;;;;;;;7.65;59.52;101129.64;1764735;80;21071;-64
2022/02/27 05:49:30;;;;;;;8.28;5.03;;;;;;;7.79;58.74;101122.69;1772614;80;21058;-68
2022/02/27 05:51:58;;;;;;;7.50;4.72;;;;;;;7.82;57.94;101121.60;1776157;80;21025;-65
2022/02/27 05:54:24;;;;;;;8.43;4.90;;;;;;;7.50;58.60;101127.53;1778067;79;21111;-64
2022/02/27 05:56:52;;;;;;;9.68;5.03;;;;;;;7.34;59.64;101129.88;1773472;80;20995;-69
2022/02/27 05:59:20;;;;;;;10.13;5.42;;;;;;;7.31;61.06;101140.52;1775877;80;20892;-67
2022/02/27 06:01:48;;;;;;;9.20;5.10;;;;;;;7.27;61.09;101144.36;1773214;80;21608;-63
2022/02/27 06:04:16;;;;;;;7.97;5.40;;;;;;;7.50;60.80;101139.66;1769903;80;21090;-62
2022/02/27 06:06:43;;;;;;;7.28;5.00;;;;;;;7.67;59.96;101140.23;1735772;82;21149;-63
2022/02/27 06:09:09;;;;;;;7.90;4.95;;;;;;;7.69;59.11;101134.43;1777113;80;21088;-68
2022/02/27 06:11:35;;;;;;;8.13;4.67;;;;;;;7.79;59.02;101135.67;1770288;80;21506;-68
2022/02/27 06:14:03;;;;;;;8.08;4.67;;;;;;;7.79;59.29;101136.48;1767492;80;21011;-62
2022/02/27 06:16:30;;;;;;;7.70;5.10;;;;;;;7.87;58.63;101145.34;1771351;80;20963;-63
2022/02/27 06:18:57;;;;;;;10.95;5.70;;;;;;;7.80;58.72;101146.38;1777339;80;21114;-61
2022/02/27 06:21:23;;;;;;;9.20;5.92;;;;;;;7.76;58.20;101152.82;1770508;80;21565;-68
2022/02/27 06:23:50;;;;;;;7.17;5.35;;;;;;;7.60;58.57;101163.80;1768912;80;20948;-66
2022/02/27 06:26:17;;;;;;;9.23;5.67;;;;;;;7.68;58.81;101159.20;1772980;80;21133;-62
2022/02/27 06:28:45;;;;;;;10.30;5.17;;;;;;;7.81;58.54;101162.31;1733401;82;21000;-63
2022/02/27 06:31:11;;;;;;;8.30;5.37;;;;;;;7.94;57.46;101164.09;1769454;80;21262;-64
2022/02/27 06:33:38;;;;;;;8.20;5.47;;;;;;;7.87;56.87;101168.21;1772602;80;20920;-64
2022/02/27 06:36:05;;;;;;;8.18;5.17;;;;;;;7.84;56.98;101168.52;1769022;80;21089;-63
2022/02/27 06:38:31;;;;;;;9.40;5.67;;;;;;;7.94;57.40;101161.98;1768337;80;21040;-63
2022/02/27 06:40:58;;;;;;;8.70;5.60;;;;;;;8.15;56.95;101176.85;1768284;80;21003;-63
2022/02/27 06:43:26;;;;;;;7.97;5.33;;;;;;;8.17;56.51;101174.09;1769145;80;21392;-63
2022/02/27 06:45:52;;;;;;;8.03;5.33;;;;;;;8.17;56.58;101184.00;1729447;82;20956;-62
2022/02/27 06:48:19;;;;;;;8.65;5.20;;;;;;;8.13;56.40;101178.77;1766714;80;20991;-62
2022/02/27 06:50:51;;;;;;;7.78;5.17;;;;;;;8.29;55.87;101184.62;1764585;80;21014;-62
2022/02/27 06:53:19;;;;;;;8.13;4.90;;;;;;;8.30;55.24;101192.77;1773130;80;21663;-64
2022/02/27 06:55:46;;;;;;;8.03;5.30;;;;;;;8.34;55.01;101184.21;1766831;80;21561;-69
2022/02/27 06:58:14;;;;;;;8.88;5.35;;;;;;;8.33;55.18;101187.75;1762026;80;21707;-66
2022/02/27 07:00:42;;;;;;;8.55;5.85;;;;;;;8.34;55.61;101190.70;1763798;80;21121;-63
2022/02/27 07:03:12;;;;;;;7.55;5.20;;;;;;;8.45;55.42;101186.16;1760317;80;20957;-63
2022/02/27 07:05:40;;;;;;;9.48;6.20;;;;;;;8.57;54.69;101189.36;1722132;82;22184;-65
2022/02/27 07:08:07;;;;;;;9.10;5.33;;;;;;;8.65;54.53;101192.03;1753450;80;21574;-66
2022/02/27 07:10:35;;;;;;;8.53;5.95;;;;;;;8.76;53.44;101191.81;1758749;80;21082;-66
2022/02/27 07:13:03;;;;;;;9.28;5.12;;;;;;;8.58;53.68;101197.97;1764672;80;20941;-64
2022/02/27 07:15:31;;;;;;;11.40;6.30;;;;;;;8.72;52.84;101198.77;1759946;80;20987;-66
2022/02/27 07:18:00;;;;;;;6.90;4.83;;;;;;;8.81;52.74;101201.77;1759444;80;21058;-66
2022/02/27 07:20:30;;;;;;;11.15;5.67;;;;;;;9.06;52.15;101203.30;1751966;80;21644;-62
2022/02/27 07:22:57;;;;;;;12.00;7.28;;;;;;;8.99;52.58;101209.09;1749567;80;20951;-61
2022/02/27 07:25:24;;;;;;;13.95;9.18;;;;;;;9.13;52.29;101209.05;1750478;80;21055;-67
2022/02/27 07:27:51;;;;;;;15.53;9.13;;;;;;;9.11;51.81;101205.77;1703839;84;21135;-62
2022/02/27 07:30:19;;;;;;;10.15;6.95;;;;;;;9.22;51.14;101208.62;1762473;80;21110;-62
2022/02/27 07:32:49;;;;;;;8.98;6.75;;;;;;;9.27;50.95;101208.98;1756121;80;21170;-61
2022/02/27 07:39:19;;;;;;;9.63;6.40;;;;;;;9.25;50.57;101207.03;1747584;80;21011;-62
2022/02/27 07:41:47;;;;;;;10.48;6.58;;;;;;;9.43;50.26;101209.13;1738838;80;21047;-62
2022/02/27 07:44:18;;;;;;;9.48;5.92;;;;;;;9.57;49.15;101197.81;1755593;80;21525;-68
2022/02/27 07:46:47;;;;;;;8.53;5.53;;;;;;;9.63;48.46;101212.83;1743809;80;22043;-67
2022/02/27 07:49:17;;;;;;;10.18;6.03;;;;;;;9.75;48.05;101202.48;1713943;80;21478;-63
2022/02/27 07:51:46;;;;;;;9.68;6.40;;;;;;;9.80;47.56;101206.73;1743597;80;21762;-63
2022/02/27 07:54:22;;;;;;;10.00;6.28;;;;;;;9.41;48.70;101212.84;1761074;80;20916;-63
2022/02/27 07:56:55;;;;;;;9.63;5.22;;;;;;;9.59;49.19;101211.50;1755998;80;21030;-62
2022/02/27 07:59:29;;;;;;;7.97;5.83;;;;;;;9.79;48.09;101206.89;1731961;80;21196;-63
2022/02/27 08:02:01;;;;;;;8.10;5.90;;;;;;;9.89;47.80;101201.91;1731026;80;21534;-62
2022/02/27 08:04:31;;;;;;;10.93;6.62;;;;;;;9.84;47.82;101206.75;1758394;80;21047;-63
2022/02/27 08:07:01;;;;;;;8.45;5.97;;;;;;;10.04;47.75;101201.30;1751063;80;21450;-63
2022/02/27 08:09:29;;;;;;;11.93;7.92;;;;;;;10.30;47.02;101203.39;1765203;80;21079;-63
2022/02/27 08:12:00;;;;;;;11.78;6.62;;;;;;;10.57;46.80;101196.30;1766845;80;21150;-62
2022/02/27 08:14:30;;;;;;;7.72;5.25;;;;;;;11.14;46.41;101185.95;1767840;80;20957;-63
2022/02/27 08:17:05;;;;;;;10.23;6.35;;;;;;;11.14;46.41;101185.95;1736980;80;21012;-62
2022/02/27 08:19:31;;;;;;;;;;;;;;;11.64;45.21;101191.42;1770665;80;21350;-70
2022/02/27 08:22:02;;;;;;;7.63;4.77;;;;;;;11.93;44.63;101181.25;1767558;80;20517;-67
2022/02/27 08:24:35;;;;;;;6.67;4.50;;;;;;;11.82;43.70;101189.42;1724709;82;21595;-64
2022/02/27 08:27:02;;;;;;;7.30;4.47;;;;;;;12.29;43.76;101181.25;1736326;81;20963;-65
2022/02/27 08:29:33;;;;;;;10.37;5.93;;;;;;;12.71;43.15;101182.63;1740957;80;21227;-65
2022/02/27 08:31:59;;;;;;;9.90;6.07;;;;;;;13.23;43.33;101170.12;1764285;80;21260;-66
2022/02/27 08:34:29;;;;;;;7.60;4.37;;;;;;;13.96;42.84;101166.73;1754025;80;21247;-64
2022/02/27 08:36:54;;;;;;;7.07;4.60;;;;;;;14.57;40.82;101165.92;1754377;80;21437;-68
2022/02/27 08:39:21;;;;;;;8.10;5.17;;;;;;;15.28;40.26;101165.92;1767216;80;22924;-68
2022/02/27 08:41:48;;;;;;;8.30;4.50;;;;;;;15.63;38.71;101168.55;1729982;82;21697;-62
2022/02/27 08:44:14;;;;;;;6.60;4.50;;;;;;;15.76;36.88;101167.36;1769630;80;21680;-62
2022/02/27 08:46:41;;;;;;;6.63;4.43;;;;;;;15.49;36.72;101164.22;1764502;80;21676;-65
2022/02/27 08:49:07;;;;;;;6.37;4.00;;;;;;;15.32;36.36;101164.53;1757780;80;23199;-63
2022/02/27 08:51:35;;;;;;;5.90;3.90;;;;;;;15.17;36.44;101177.45;1767974;80;21694;-62
2022/02/27 08:54:02;;;;;;;6.37;4.00;;;;;;;15.04;36.25;101175.05;1742819;80;22753;-62
2022/02/27 08:56:29;;;;;;;6.50;4.27;;;;;;;14.60;36.52;101172.11;1765600;80;21718;-67
2022/02/27 08:58:57;;;;;;;7.57;4.57;;;;;;;14.17;37.48;101167.30;1755579;80;21981;-63
2022/02/27 09:01:24;;;;;;;7.23;3.90;;;;;;;14.12;38.45;101169.13;1766802;80;21526;-66
2022/02/27 09:03:50;;;;;;;8.47;4.43;;;;;;;14.54;37.26;101174.16;1773716;80;21493;-62
2022/02/27 09:06:19;;;;;;;7.90;4.93;;;;;;;14.53;37.36;101167.80;1765137;80;21468;-62
2022/02/27 09:08:47;;;;;;;9.63;6.80;;;;;;;14.67;36.98;101169.56;1777816;80;21300;-63
2022/02/27 09:11:15;;;;;;;7.13;4.67;;;;;;;14.49;37.60;101171.30;1772538;79;22077;-62
2022/02/27 09:13:41;;;;;;;6.63;4.33;;;;;;;14.68;36.81;101167.24;1731125;80;21802;-63
2022/02/27 09:16:07;;;;;;;8.40;4.20;;;;;;;14.43;36.50;101167.25;1781372;80;21487;-61
2022/02/27 09:18:34;;;;;;;6.43;4.27;;;;;;;13.95;36.99;101166.92;1782126;80;21337;-65
2022/02/27 09:21:01;;;;;;;8.17;4.33;;;;;;;13.95;36.99;101166.92;1781423;80;21302;-62
2022/02/27 09:23:29;;;;;;;8.70;5.40;;;;;;;13.74;37.27;101167.14;1780990;80;21293;-66
2022/02/27 09:25:58;;;;;;;13.20;8.43;;;;;;;13.59;38.11;101167.64;1775034;80;22898;-61
2022/02/27 09:28:24;;;;;;;17.30;9.20;;;;;;;13.94;38.20;101166.11;1776404;80;21816;-62
2022/02/27 09:30:52;;;;;;;11.87;6.20;;;;;;;14.09;38.34;101164.75;1720729;82;21282;-65
2022/02/27 09:33:19;;;;;;;14.10;8.00;;;;;;;14.26;37.87;101157.50;1719930;82;21229;-62
2022/02/27 09:35:45;;;;;;;9.27;5.50;;;;;;;14.32;38.88;101165.45;1725579;82;21982;-64
2022/02/27 09:38:13;;;;;;;6.67;4.07;;;;;;;14.56;37.31;101156.94;1718971;82;22618;-61
2022/02/27 09:40:40;;;;;;;6.33;3.50;;;;;;;14.77;36.85;101156.11;1723522;82;21267;-61
2022/02/27 09:43:07;;;;;;;8.87;5.20;;;;;;;14.91;36.72;101152.60;1724637;82;21880;-63
2022/02/27 09:45:33;;;;;;;6.00;3.30;;;;;;;15.15;35.73;101155.30;1723754;82;21909;-66
2022/02/27 09:48:00;;;;;;;9.80;5.80;;;;;;;15.21;35.58;101140.61;1724360;82;21535;-60
2022/02/27 09:50:28;;;;;;;8.57;5.07;;;;;;;15.41;35.59;101146.80;1727499;82;21404;-63
2022/02/27 09:52:55;;;;;;;12.53;7.20;;;;;;;15.41;35.59;101146.80;1723977;82;21473;-65
2022/02/27 09:55:22;;;;;;;7.87;4.53;;;;;;;15.42;35.28;101151.06;1708495;83;21478;-63
2022/02/27 09:57:49;;;;;;;10.77;6.43;;;;;;;15.53;34.93;101135.23;1730420;82;21534;-63
2022/02/27 10:00:18;;;;;;;6.67;3.97;;;;;;;15.69;34.75;101142.05;1692443;83;22043;-62
2022/02/27 10:03:10;;;;;;;7.00;3.37;;;;;;;15.57;34.54;101139.94;1708296;83;21509;-72
2022/02/27 10:05:45;;;;;;;5.83;3.10;;;;;;;15.49;34.70;101129.59;1708675;83;21403;-63
2022/02/27 10:08:14;;;;;;;6.10;3.50;;;;;;;15.49;34.70;101170.31;1715834;83;22218;-63
2022/02/27 10:10:56;;;;;;;9.37;4.47;;;;;;;15.27;34.80;101134.60;1713944;83;21762;-67
2022/02/27 10:13:37;;;;;;;5.90;3.80;;;;;;;15.18;35.79;101130.48;1718416;83;27171;-62
2022/02/27 10:16:25;;;;;;;4.60;3.00;;;;;;;14.96;35.02;101131.83;1713021;83;21830;-64
2022/02/27 10:18:59;;;;;;;6.53;3.55;;;;;;;14.80;35.11;101138.17;1691420;84;21400;-64
2022/02/27 10:21:32;;;;;;;;;;;;;;;14.95;35.84;101141.22;1660585;85;21019;-61
2022/02/27 10:24:05;;;;;;;7.95;4.60;;;;;;;15.33;35.38;101129.37;1677805;83;20218;-62
2022/02/27 10:26:33;;;;;;;8.23;3.90;;;;;;;15.62;34.73;101127.52;1725151;82;21066;-61
2022/02/27 10:29:18;;;;;;;5.27;3.13;;;;;;;15.50;34.71;101125.95;1684419;84;21512;-63
2022/02/27 10:31:50;;;;;;;5.10;3.03;;;;;;;16.11;34.06;101118.64;1722155;82;21593;-62
2022/02/27 10:34:26;;;;;;;4.77;2.90;;;;;;;16.11;34.06;101118.64;1674779;84;21474;-64
2022/02/27 10:37:10;;;;;;;6.90;3.57;;;;;;;16.16;33.23;101112.27;1730560;82;21667;-64
2022/02/27 10:39:51;;;;;;;6.00;3.40;;;;;;;16.25;33.68;101115.05;1692329;84;21831;-69
2022/02/27 10:42:21;;;;;;;5.10;2.92;;;;;;;16.52;33.14;101110.63;1723225;82;21759;-61
2022/02/27 10:45:01;;;;;;;5.70;3.53;;;;;;;16.70;32.84;101112.64;1727349;82;21062;-67
2022/02/27 10:47:34;;;;;;;6.47;3.57;;;;;;;16.44;32.76;101108.67;1720314;82;21691;-63
2022/02/27 10:50:13;;;;;;;5.57;3.20;;;;;;;16.32;33.43;101112.91;1724965;82;21732;-68
2022/02/27 10:52:46;;;;;;;5.40;3.10;;;;;;;16.24;33.06;101107.33;1724400;82;21683;-61
2022/02/27 10:55:10;;;;;;;7.60;3.40;;;;;;;16.21;32.97;101112.50;1724811;82;22421;-62
2022/02/27 10:57:41;;;;;;;6.70;4.17;;;;;;;15.96;33.19;101103.53;1727260;82;21721;-62
2022/02/27 11:00:29;;;;;;;5.97;3.52;;;;;;;15.73;33.43;101105.97;1726690;82;21682;-63
2022/02/27 11:03:07;;;;;;;5.53;3.37;;;;;;;15.53;33.81;101114.22;1720265;82;21046;-62
2022/02/27 11:05:42;;;;;;;6.63;3.80;;;;;;;15.37;34.00;101110.09;1706479;82;21601;-60
2022/02/27 11:08:11;;;;;;;5.90;3.33;;;;;;;15.37;34.00;101110.09;1680764;84;21783;-62
2022/02/27 11:10:41;;;;;;;6.43;3.20;;;;;;;15.51;33.75;101122.81;1687576;84;21305;-62
2022/02/27 11:13:10;;;;;;;4.17;2.40;;;;;;;15.64;32.86;101112.86;1691544;84;23057;-60
2022/02/27 11:15:39;;;;;;;7.93;3.30;;;;;;;15.64;32.86;101112.86;1679091;84;21827;-60
2022/02/27 11:18:06;;;;;;;4.70;2.90;;;;;;;15.32;32.97;101119.06;1662590;85;21485;-60
2022/02/27 11:20:33;;;;;;;5.10;3.00;;;;;;;15.15;33.20;101118.53;1694213;83;21438;-68
2022/02/27 11:23:00;;;;;;;5.37;3.13;;;;;;;15.50;34.17;101119.88;1673182;84;21632;-64
2022/02/27 11:25:28;;;;;;;4.87;3.23;;;;;;;15.50;34.17;101119.88;1722079;82;21545;-70
2022/02/27 11:28:07;;;;;;;5.83;3.10;;;;;;;16.38;32.61;101113.44;1731565;82;21461;-64
2022/02/27 11:30:39;;;;;;;5.10;2.83;;;;;;;16.22;32.67;101114.63;1725107;82;21459;-64
2022/02/27 11:33:09;;;;;;;6.03;2.90;;;;;;;16.22;32.67;101114.63;1730044;82;21772;-61
2022/02/27 11:35:44;;;;;;;6.13;2.90;;;;;;;16.19;32.53;101119.77;1729475;82;22319;-60
2022/02/27 11:38:31;;;;;;;5.67;3.03;;;;;;;16.07;33.13;101122.67;1730617;82;21735;-61
2022/02/27 11:41:16;;;;;;;5.77;3.53;;;;;;;16.50;32.59;101112.63;1666842;85;21495;-71